Thackerville, OK (73459)

7:30 PM CDT on October 25, 2014 (GMT -0500)
Gainesville Municipal | Change Station
CLOSE
Current Station
Airport
Location: Gainesville,
Elevation: 840 ft
Nearby Weather Stations

Elev 840 ft 33.65 °N, 97.20 °W | Updated 15 minutes ago

Clear
Clear
76 °F
Feels Like 76 °F
N
5
Wind Variable Wind from SE

Today
High -- | Low -- °F
--% Chance of Precip.
Yesterday
High -- | Low -- °F
Precip. -- in
7:41 AM 6:43 PM
Waxing Crescent, 5% visible
Pressure 30.07 in
Visibility 10.0 miles
Clouds Clear
Dew Point 61 °F
Humidity 60%
Rainfall 0.00 in
Snow Depth Not available.
UV 0 out of 12
Pollen 5.20 out of 12
Air Quality Not available.
Flu Activity Sporadic
METAR KGLE 260015Z AUTO 14004KT 10SM CLR 25/16 A3007 RMK AO2 T02450162

More Conditions Fewer Conditions

Pressure 30.07 in
Visibility 10.0 miles
Clouds Clear
Dew Point 61 °F
Humidity 60%
Rainfall 0.00 in
Snow Depth Not available.
UV 0 out of 12
Pollen 5.20 out of 12
Air Quality Not available.
Flu Activity Sporadic
METAR KGLE 260015Z AUTO 14004KT 10SM CLR 25/16 A3007 RMK AO2 T02450162

More Conditions Fewer Conditions

10-Day Weather Forecast

Almanac

Astronomy

Oct. 25, 2014 Rise Set
Actual Time 7:41 AM CDT 6:43 PM CDT
Civil Twilight 7:16 AM CDT 7:08 PM CDT
Nautical Twilight 6:46 AM CDT 7:37 PM CDT
Astronomical Twilight 6:17 AM CDT 8:06 PM CDT
Moon 9:18 AM CDT (10/25) 8:11 PM CDT (10/25)
Length of Visible Light 11h 52m
Length of Day
11h 01m
Tomorrow will be 1m 55s shorter.
Waxing Crescent, 5% of the Moon is Illuminated
Today
Waxing Crescent
Oct 30
First Quarter
Nov 6
Full
Nov 14
Last Quarter
Nov 22
New

Today's Extremes

State Highs State Lows

Community

WunderPhotos

Upload Photos

1,765,052 photos uploaded!

Nearby

Snow Depth

Station Depth Elevation
No new snow has been reported.

Earthquake Activity

City Distance Mag. Time & Date
Jones, Oklahoma 123 miles 3.0 12:10 PM CDT
2014-10-25
Luther, Oklahoma 125 miles 2.5 10:36 PM CDT
2014-10-22
Minimum magnitude displayed is 2.5.

Coastal Water Temperatures

Place Temperature
No Stations Reporting

Nearby Weather Stations